Time;durP1;ratioP1;P1;durP2;ratioP2;P2;SDS_P1;SDS_P2;PMS_P1;PMS_P2;Temp;Humidity;BMP_temperature;BMP_pressure;BME280_temperature;BME280_humidity;BME280_pressure;Samples;Min_cycle;Max_cycle;Signal;HPM_P1;HPM_P2
2022/01/06 00:01:04;;;;;;;0.40;0.40;;;5.60;95.20;;;;;;5053640;28;20213;-68
2022/01/06 00:03:33;;;;;;;2.03;0.40;;;5.60;94.20;;;;;;5053669;28;20311;-68
2022/01/06 00:06:04;;;;;;;0.30;0.30;;;5.40;94.00;;;;;;5037261;28;20204;-69
2022/01/06 00:08:34;;;;;;;0.83;0.30;;;5.40;94.40;;;;;;5053917;28;20644;-68
2022/01/06 00:11:02;;;;;;;0.40;0.40;;;5.30;94.40;;;;;;5037164;28;20203;-68
2022/01/06 00:13:47;;;;;;;0.33;0.30;;;5.30;94.80;;;;;;5020993;28;20524;-68
2022/01/06 00:24:23;;;;;;;0.30;0.20;;;5.20;94.90;;;;;;5053664;28;20238;-68
2022/01/06 00:26:50;;;;;;;0.23;0.23;;;5.20;95.10;;;;;;5051213;28;20544;-68
2022/01/06 00:29:19;;;;;;;0.53;0.43;;;5.20;94.90;;;;;;5036595;28;20208;-68
2022/01/06 00:31:47;;;;;;;0.40;0.40;;;5.20;95.20;;;;;;5053786;28;20200;-69
2022/01/06 00:34:14;;;;;;;0.60;0.30;;;5.20;95.30;;;;;;5036837;28;20216;-69
2022/01/06 00:36:43;;;;;;;0.30;0.30;;;5.20;95.50;;;;;;5053964;28;20235;-68
2022/01/06 00:39:11;;;;;;;0.50;0.50;;;5.20;95.40;;;;;;5053295;28;20282;-68
2022/01/06 00:41:38;;;;;;;0.40;0.40;;;5.20;95.30;;;;;;5052328;28;20318;-68
2022/01/06 00:44:07;;;;;;;1.07;0.40;;;5.20;95.20;;;;;;5036239;28;20228;-67
2022/01/06 00:46:35;;;;;;;0.40;0.40;;;5.20;95.50;;;;;;5035575;28;20635;-67
2022/01/06 00:49:03;;;;;;;2.30;0.47;;;5.20;95.70;;;;;;5053300;28;20213;-68
2022/01/06 00:51:31;;;;;;;0.90;0.47;;;5.20;95.70;;;;;;5035952;28;20201;-68
2022/01/06 00:53:58;;;;;;;0.40;0.40;;;5.30;95.80;;;;;;5020955;28;20216;-68
2022/01/06 00:56:25;;;;;;;0.50;0.50;;;5.30;95.90;;;;;;5035792;28;20205;-68
2022/01/06 00:58:52;;;;;;;0.40;0.40;;;5.30;95.90;;;;;;5050125;28;20202;-68
2022/01/06 01:01:19;;;;;;;0.57;0.40;;;5.30;95.20;;;;;;5054534;28;20200;-67
2022/01/06 01:03:47;;;;;;;0.67;0.40;;;5.20;95.20;;;;;;5036154;28;20236;-67
2022/01/06 01:06:14;;;;;;;0.47;0.40;;;5.20;95.50;;;;;;5057826;28;20217;-67
2022/01/06 01:08:41;;;;;;;1.80;0.60;;;5.20;95.70;;;;;;5039358;28;20224;-67
2022/01/06 01:11:08;;;;;;;0.50;0.50;;;5.20;95.80;;;;;;5055755;28;20261;-68
2022/01/06 01:13:47;;;;;;;0.60;0.40;;;5.20;95.80;;;;;;5058045;28;20205;-68
2022/01/06 01:16:24;;;;;;;0.40;0.40;;;5.20;95.60;;;;;;5055615;28;20230;-68
2022/01/06 01:18:51;;;;;;;0.40;0.40;;;5.20;95.90;;;;;;5038305;28;20205;-68
2022/01/06 01:21:22;;;;;;;1.07;0.40;;;5.20;95.80;;;;;;5038782;28;20216;-67
2022/01/06 01:23:49;;;;;;;1.03;1.00;;;5.20;95.60;;;;;;5060322;28;20255;-67
2022/01/06 01:26:16;;;;;;;0.30;0.30;;;5.20;95.30;;;;;;5059218;28;20211;-67
2022/01/06 01:28:45;;;;;;;0.40;0.40;;;5.10;95.10;;;;;;5039346;28;20200;-68
2022/01/06 01:33:46;;;;;;;0.40;0.40;;;5.10;95.40;;;;;;5041408;28;20282;-68
2022/01/06 01:36:13;;;;;;;2.00;0.60;;;5.00;95.20;;;;;;5059049;28;20536;-67
2022/01/06 01:38:41;;;;;;;0.50;0.50;;;5.00;95.40;;;;;;5060214;28;20204;-68
2022/01/06 01:41:09;;;;;;;2.23;0.90;;;5.10;95.40;;;;;;5039990;28;20659;-68
2022/01/06 01:43:37;;;;;;;0.50;0.50;;;5.00;95.50;;;;;;5058651;28;20278;-67
2022/01/06 01:46:14;;;;;;;0.60;0.60;;;5.00;95.70;;;;;;5056237;28;20206;-67
2022/01/06 01:48:47;;;;;;;1.03;0.43;;;5.00;95.90;;;;;;5037746;28;20220;-68
2022/01/06 01:51:15;;;;;;;0.50;0.50;;;5.10;95.60;;;;;;5055383;28;20283;-68
2022/01/06 01:53:42;;;;;;;0.30;0.30;;;5.10;95.60;;;;;;5058246;28;20217;-68
2022/01/06 01:56:12;;;;;;;0.30;0.30;;;5.10;95.70;;;;;;5056831;28;20240;-68
2022/01/06 01:58:40;;;;;;;0.30;0.30;;;5.10;95.30;;;;;;5038526;28;20208;-68
2022/01/06 02:01:08;;;;;;;0.33;0.33;;;5.10;95.50;;;;;;5059613;28;20211;-67
2022/01/06 02:03:35;;;;;;;1.27;0.30;;;5.10;95.40;;;;;;5062723;28;20728;-67
2022/01/06 02:06:02;;;;;;;1.07;0.40;;;5.10;95.60;;;;;;5060140;28;20206;-67
2022/01/06 02:08:31;;;;;;;0.40;0.40;;;5.10;95.70;;;;;;5057934;28;20212;-67
2022/01/06 02:10:58;;;;;;;0.20;0.20;;;5.10;95.80;;;;;;5043080;28;20694;-67
2022/01/06 02:13:29;;;;;;;0.20;0.20;;;5.10;95.70;;;;;;5024535;28;20638;-68
2022/01/06 02:16:01;;;;;;;1.93;0.50;;;5.10;95.70;;;;;;5056116;28;20245;-68
2022/01/06 02:18:29;;;;;;;1.23;0.40;;;5.10;95.60;;;;;;5057280;28;20235;-68
2022/01/06 02:20:56;;;;;;;0.30;0.30;;;5.10;95.60;;;;;;5057110;28;20257;-68
2022/01/06 02:23:24;;;;;;;0.63;0.43;;;5.10;95.30;;;;;;5038488;28;20539;-68
2022/01/06 02:25:51;;;;;;;0.40;0.40;;;5.10;95.20;;;;;;5040048;28;20225;-68
2022/01/06 02:28:19;;;;;;;0.47;0.47;;;5.10;95.20;;;;;;5053737;28;20306;-68
2022/01/06 02:30:50;;;;;;;0.47;0.40;;;5.10;95.20;;;;;;5055484;28;20211;-68
2022/01/06 02:33:18;;;;;;;0.70;0.67;;;5.10;95.40;;;;;;5059446;28;20204;-69
2022/01/06 02:35:47;;;;;;;1.17;0.60;;;5.10;95.30;;;;;;5055483;28;20196;-69
2022/01/06 02:38:15;;;;;;;0.40;0.40;;;5.10;95.40;;;;;;5052065;28;20206;-69
2022/01/06 02:40:43;;;;;;;0.83;0.40;;;5.20;95.60;;;;;;5054432;28;20600;-69
2022/01/06 02:43:14;;;;;;;0.50;0.30;;;5.20;95.80;;;;;;5055600;28;20209;-68
2022/01/06 02:45:41;;;;;;;0.40;0.40;;;5.20;95.50;;;;;;5052425;28;20201;-68
2022/01/06 02:48:08;;;;;;;0.50;0.40;;;5.20;95.20;;;;;;5055414;28;20212;-68
2022/01/06 02:50:44;;;;;;;0.80;0.40;;;5.20;95.30;;;;;;5055074;28;20553;-68
2022/01/06 02:53:12;;;;;;;0.30;0.30;;;5.20;95.30;;;;;;5028286;28;20212;-68
2022/01/06 02:55:47;;;;;;;0.20;0.20;;;5.20;95.20;;;;;;5053699;28;20278;-68
2022/01/06 02:58:34;;;;;;;0.40;0.40;;;5.20;95.20;;;;;;5055268;28;20204;-68
2022/01/06 03:01:01;;;;;;;0.60;0.30;;;5.20;95.20;;;;;;5037352;28;20213;-68
2022/01/06 03:03:28;;;;;;;0.60;0.30;;;5.30;95.40;;;;;;5055032;28;20211;-68
2022/01/06 03:05:55;;;;;;;1.43;0.60;;;5.30;95.30;;;;;;5033877;28;20204;-68
2022/01/06 03:08:23;;;;;;;0.80;0.50;;;5.30;95.50;;;;;;5055356;28;20553;-68
2022/01/06 03:10:50;;;;;;;0.20;0.20;;;5.30;95.50;;;;;;5049594;28;20208;-68
2022/01/06 03:13:17;;;;;;;0.27;0.27;;;5.30;95.40;;;;;;5052902;28;20649;-68
2022/01/06 03:15:44;;;;;;;0.37;0.20;;;5.30;95.10;;;;;;5051487;28;20205;-68
2022/01/06 03:18:12;;;;;;;1.40;0.30;;;5.40;95.30;;;;;;5050163;28;20285;-68
2022/01/06 03:20:39;;;;;;;3.93;0.40;;;5.40;95.30;;;;;;5054459;28;20697;-68
2022/01/06 03:23:06;;;;;;;1.57;0.30;;;5.40;95.20;;;;;;5053067;28;20209;-68
2022/01/06 03:25:33;;;;;;;0.53;0.30;;;5.40;95.30;;;;;;5022777;28;20248;-68
2022/01/06 03:28:00;;;;;;;0.50;0.20;;;5.40;95.30;;;;;;5037029;28;20216;-68
2022/01/06 03:30:27;;;;;;;1.33;0.30;;;5.40;95.30;;;;;;5051044;28;20201;-68
2022/01/06 03:32:54;;;;;;;0.10;0.10;;;5.40;95.30;;;;;;5053914;28;20212;-68
2022/01/06 03:35:23;;;;;;;0.83;0.27;;;5.40;95.30;;;;;;5036901;28;20212;-69
2022/01/06 03:37:51;;;;;;;0.10;0.10;;;5.40;95.20;;;;;;5023262;28;20221;-68
2022/01/06 03:40:19;;;;;;;0.30;0.20;;;5.40;95.00;;;;;;5038295;28;20201;-68
2022/01/06 03:46:33;;;;;;;0.73;0.10;;;5.50;95.20;;;;;;5046906;28;20233;-68
2022/01/06 03:49:00;;;;;;;0.10;0.10;;;5.50;95.20;;;;;;5051985;28;20224;-68
2022/01/06 03:51:27;;;;;;;0.83;0.20;;;5.50;95.20;;;;;;5055560;28;20213;-68
2022/01/06 03:53:54;;;;;;;0.10;0.10;;;5.50;95.20;;;;;;5034560;28;20220;-68
2022/01/06 03:56:21;;;;;;;0.10;0.10;;;5.50;95.20;;;;;;5038453;28;20215;-68
2022/01/06 03:58:49;;;;;;;1.03;0.40;;;5.60;95.20;;;;;;5058376;28;20253;-68
2022/01/06 04:01:17;;;;;;;0.20;0.20;;;5.60;95.30;;;;;;5060976;28;20232;-68
2022/01/06 04:03:47;;;;;;;1.73;0.40;;;5.60;95.30;;;;;;5045413;28;20203;-68
2022/01/06 04:06:15;;;;;;;0.10;0.10;;;5.60;95.30;;;;;;5060420;28;20560;-68
2022/01/06 04:08:42;;;;;;;0.83;0.20;;;5.60;95.30;;;;;;5061546;28;20224;-68
2022/01/06 04:11:10;;;;;;;1.00;0.50;;;5.70;95.30;;;;;;5024053;28;20703;-68
2022/01/06 04:13:37;;;;;;;0.23;0.23;;;5.70;95.30;;;;;;5045686;28;20295;-69
2022/01/06 04:16:08;;;;;;;0.73;0.30;;;5.70;95.30;;;;;;5062426;28;20607;-69
2022/01/06 04:18:35;;;;;;;3.40;0.30;;;5.70;95.30;;;;;;5061154;28;20193;-69
2022/01/06 04:21:03;;;;;;;0.63;0.20;;;5.80;95.30;;;;;;5037721;28;20209;-69
2022/01/06 04:23:30;;;;;;;0.20;0.20;;;5.70;95.30;;;;;;5039372;28;20223;-69
2022/01/06 04:25:57;;;;;;;0.87;0.30;;;5.80;95.30;;;;;;5039298;28;20633;-69
2022/01/06 04:28:25;;;;;;;0.13;0.13;;;5.80;95.30;;;;;;5040534;28;20197;-69
2022/01/06 04:30:52;;;;;;;3.07;0.30;;;5.80;95.30;;;;;;5051174;28;20667;-69
2022/01/06 04:33:20;;;;;;;0.40;0.20;;;5.90;95.30;;;;;;5057101;28;20209;-69
2022/01/06 04:35:47;;;;;;;0.30;0.30;;;5.90;95.10;;;;;;5039867;28;20314;-69
2022/01/06 04:38:14;;;;;;;0.77;0.30;;;5.80;94.70;;;;;;5059297;28;20202;-68
2022/01/06 04:40:41;;;;;;;0.23;0.23;;;5.80;94.80;;;;;;5057435;28;20214;-68
2022/01/06 04:43:08;;;;;;;0.20;0.20;;;5.90;94.80;;;;;;5061001;28;20210;-68
2022/01/06 04:45:35;;;;;;;1.20;0.43;;;5.90;94.80;;;;;;5054798;28;20229;-68
2022/01/06 04:48:02;;;;;;;2.67;0.40;;;5.80;94.50;;;;;;5038597;28;20220;-68
2022/01/06 04:50:29;;;;;;;2.33;0.20;;;5.80;94.60;;;;;;5023939;28;20213;-68
2022/01/06 04:52:58;;;;;;;0.97;0.20;;;5.80;94.50;;;;;;5041274;28;20197;-68
2022/01/06 04:55:26;;;;;;;1.53;0.20;;;5.80;94.40;;;;;;5013908;28;20695;-70
2022/01/06 04:57:53;;;;;;;0.20;0.10;;;5.80;94.50;;;;;;4992573;28;20227;-70
2022/01/06 05:00:20;;;;;;;0.40;0.20;;;5.80;94.60;;;;;;5008947;28;20529;-70
2022/01/06 05:02:47;;;;;;;1.13;0.20;;;5.80;94.70;;;;;;5002118;28;20207;-70
2022/01/06 05:05:14;;;;;;;0.40;0.30;;;5.90;94.80;;;;;;5007978;28;20230;-70
2022/01/06 05:07:42;;;;;;;3.30;0.50;;;5.90;94.90;;;;;;5008416;28;20203;-70
2022/01/06 05:10:10;;;;;;;2.57;0.40;;;5.90;94.90;;;;;;5010740;28;20628;-70
2022/01/06 05:12:42;;;;;;;0.67;0.57;;;5.90;94.90;;;;;;5010409;28;20228;-70
2022/01/06 05:15:11;;;;;;;1.77;0.30;;;6.00;95.00;;;;;;5009867;28;20221;-70
2022/01/06 05:17:38;;;;;;;1.30;0.63;;;6.00;95.00;;;;;;5014677;28;20654;-70
2022/01/06 05:20:07;;;;;;;0.17;0.17;;;6.00;95.00;;;;;;5006128;28;20203;-70
2022/01/06 05:22:36;;;;;;;0.20;0.20;;;6.00;95.00;;;;;;5004552;28;20208;-70
2022/01/06 05:25:04;;;;;;;0.20;0.20;;;6.10;95.00;;;;;;5007308;28;20242;-70
2022/01/06 05:27:31;;;;;;;1.80;0.23;;;6.10;95.00;;;;;;5002096;28;20200;-70
2022/01/06 05:29:58;;;;;;;0.30;0.30;;;6.10;95.00;;;;;;4981355;28;20221;-70
2022/01/06 05:32:25;;;;;;;1.10;0.30;;;6.10;94.90;;;;;;5000879;28;20211;-70
2022/01/06 05:34:52;;;;;;;1.40;0.23;;;6.20;95.00;;;;;;5000942;28;20226;-70
2022/01/06 05:37:19;;;;;;;1.27;0.30;;;6.20;95.00;;;;;;5003117;28;20225;-70
2022/01/06 05:39:46;;;;;;;1.73;0.53;;;6.20;95.00;;;;;;5000945;28;20220;-70
2022/01/06 05:42:13;;;;;;;1.50;0.20;;;6.20;95.00;;;;;;4996332;28;20215;-70
2022/01/06 05:44:41;;;;;;;2.00;0.40;;;6.20;95.00;;;;;;4998982;28;20242;-70
2022/01/06 05:47:09;;;;;;;0.20;0.20;;;6.30;95.00;;;;;;4996434;28;20554;-70
2022/01/06 05:49:36;;;;;;;0.73;0.30;;;6.20;94.80;;;;;;4998891;28;20211;-70
2022/01/06 05:52:03;;;;;;;1.07;0.40;;;6.20;94.80;;;;;;4997046;28;20223;-70
2022/01/06 05:54:30;;;;;;;0.30;0.30;;;6.20;94.80;;;;;;5020909;28;20245;-71
2022/01/06 05:56:57;;;;;;;0.47;0.23;;;6.20;94.70;;;;;;5063631;28;20203;-70
2022/01/06 05:59:25;;;;;;;1.50;0.30;;;6.20;94.60;;;;;;5040918;28;20210;-70
2022/01/06 06:01:51;;;;;;;0.63;0.43;;;6.20;94.50;;;;;;5065977;28;20538;-70
2022/01/06 06:04:19;;;;;;;0.40;0.20;;;6.20;94.50;;;;;;5061843;28;22083;-70
2022/01/06 06:06:46;;;;;;;0.20;0.20;;;6.20;94.40;;;;;;5064583;28;20224;-71
2022/01/06 06:09:13;;;;;;;0.53;0.20;;;6.30;94.50;;;;;;5044034;28;20574;-70
2022/01/06 06:11:40;;;;;;;0.60;0.33;;;6.30;94.50;;;;;;5065087;28;20651;-70
2022/01/06 06:14:07;;;;;;;2.47;0.40;;;6.30;94.50;;;;;;5062905;28;20251;-70
2022/01/06 06:16:34;;;;;;;2.70;1.17;;;6.30;94.30;;;;;;5043773;28;20200;-70
2022/01/06 06:19:02;;;;;;;1.03;0.70;;;6.20;94.20;;;;;;5038694;28;20625;-70
2022/01/06 06:21:29;;;;;;;0.93;0.87;;;6.20;94.40;;;;;;5038086;28;20220;-70
2022/01/06 06:23:56;;;;;;;1.83;0.87;;;6.10;94.40;;;;;;5057271;28;20555;-70
2022/01/06 06:26:23;;;;;;;3.57;1.30;;;6.10;94.60;;;;;;5052912;28;20236;-70
2022/01/06 06:28:50;;;;;;;5.73;1.17;;;6.00;94.80;;;;;;5058176;28;20205;-70
2022/01/06 06:31:17;;;;;;;1.13;0.97;;;6.00;94.90;;;;;;5061229;28;20204;-71
2022/01/06 06:33:44;;;;;;;0.63;0.20;;;6.00;95.00;;;;;;5040650;28;20197;-70
2022/01/06 06:36:12;;;;;;;0.50;0.30;;;6.00;94.90;;;;;;5060537;28;20212;-70
2022/01/06 06:38:38;;;;;;;1.50;0.77;;;5.90;94.80;;;;;;5038735;28;20216;-70
2022/01/06 06:45:56;;;;;;;1.97;1.47;;;5.80;95.20;;;;;;5056775;28;20680;-71
2022/01/06 06:48:25;;;;;;;2.10;2.00;;;5.80;95.20;;;;;;5033423;28;20217;-71
2022/01/06 06:50:52;;;;;;;2.60;2.40;;;5.80;95.10;;;;;;5055141;28;20200;-70
2022/01/06 06:53:19;;;;;;;2.17;1.97;;;5.80;95.10;;;;;;5054652;28;20209;-70
2022/01/06 06:55:46;;;;;;;2.07;1.87;;;5.70;95.00;;;;;;5037689;28;20241;-70
2022/01/06 06:58:13;;;;;;;3.20;2.20;;;5.60;94.80;;;;;;5056540;28;20215;-70
2022/01/06 07:00:40;;;;;;;2.10;1.90;;;5.60;94.80;;;;;;5055060;28;20210;-71
2022/01/06 07:03:07;;;;;;;3.87;2.50;;;5.50;94.90;;;;;;5037544;28;20227;-71
2022/01/06 07:05:35;;;;;;;2.10;1.97;;;5.40;94.90;;;;;;5037061;28;20238;-71
2022/01/06 07:08:41;;;;;;;2.67;2.20;;;5.40;94.90;;;;;;5043829;28;20212;-71
2022/01/06 07:11:08;;;;;;;2.37;2.03;;;5.40;94.90;;;;;;5060465;28;20225;-71
2022/01/06 07:13:35;;;;;;;5.73;2.43;;;5.40;95.00;;;;;;5037791;28;20203;-70
2022/01/06 07:16:02;;;;;;;2.20;2.00;;;5.40;95.00;;;;;;5038355;28;20217;-70
2022/01/06 07:18:29;;;;;;;3.40;2.13;;;5.30;95.00;;;;;;5037388;28;20209;-71
2022/01/06 07:20:57;;;;;;;3.73;2.20;;;5.30;95.00;;;;;;5037634;28;20208;-70
2022/01/06 07:23:24;;;;;;;2.73;1.63;;;5.30;95.00;;;;;;5038773;28;20255;-70
2022/01/06 07:25:51;;;;;;;1.93;1.57;;;5.30;95.00;;;;;;5056903;28;20234;-70
2022/01/06 07:28:19;;;;;;;2.57;2.03;;;5.30;95.10;;;;;;5036484;28;20212;-70
2022/01/06 07:30:46;;;;;;;3.67;2.50;;;5.30;95.10;;;;;;5038344;28;20291;-70
2022/01/06 07:33:13;;;;;;;2.40;1.40;;;5.30;95.10;;;;;;5058595;28;20208;-70
2022/01/06 07:35:40;;;;;;;1.83;1.50;;;5.30;95.00;;;;;;5056972;28;20246;-70
2022/01/06 07:38:07;;;;;;;1.57;1.27;;;5.30;95.00;;;;;;5039577;28;20293;-70
2022/01/06 07:40:34;;;;;;;3.33;1.33;;;5.30;95.00;;;;;;5024565;28;20258;-70
2022/01/06 07:43:01;;;;;;;1.30;1.20;;;5.30;94.90;;;;;;5041162;28;20226;-70
2022/01/06 07:45:28;;;;;;;1.20;1.10;;;5.30;94.70;;;;;;5056807;28;20229;-70
2022/01/06 07:47:56;;;;;;;1.50;1.40;;;5.20;94.80;;;;;;5025389;28;20209;-70
2022/01/06 07:50:26;;;;;;;1.23;1.03;;;5.20;94.80;;;;;;5025941;28;20653;-70
2022/01/06 07:52:54;;;;;;;1.47;1.37;;;5.20;95.00;;;;;;5040162;28;20205;-71
2022/01/06 07:55:21;;;;;;;2.17;1.70;;;5.20;94.90;;;;;;5057199;28;20690;-70
2022/01/06 07:57:50;;;;;;;1.80;1.70;;;5.10;94.90;;;;;;5060127;28;20227;-71
2022/01/06 08:00:19;;;;;;;2.40;2.07;;;5.10;95.00;;;;;;5063529;28;20211;-70
2022/01/06 08:02:47;;;;;;;2.33;1.77;;;5.10;95.20;;;;;;5041649;28;20219;-70
2022/01/06 08:05:15;;;;;;;2.03;1.60;;;5.10;95.40;;;;;;5060588;28;20333;-70
2022/01/06 08:07:43;;;;;;;1.40;1.30;;;5.10;95.30;;;;;;5057367;28;20585;-70
2022/01/06 08:10:10;;;;;;;2.27;1.10;;;5.10;95.40;;;;;;5056010;28;20278;-70
2022/01/06 08:12:38;;;;;;;1.50;1.30;;;5.10;95.50;;;;;;5020242;28;20211;-70
2022/01/06 08:15:06;;;;;;;1.20;1.10;;;5.10;95.40;;;;;;5036430;28;20248;-70
2022/01/06 08:17:34;;;;;;;1.23;1.13;;;5.10;95.80;;;;;;5044397;28;20709;-70
2022/01/06 08:20:01;;;;;;;1.33;1.13;;;5.10;95.60;;;;;;5041958;28;20289;-70
2022/01/06 08:22:29;;;;;;;1.37;1.27;;;5.10;95.60;;;;;;5041696;28;20671;-70
2022/01/06 08:24:56;;;;;;;1.73;1.30;;;5.10;95.50;;;;;;5059613;28;20222;-71
2022/01/06 08:27:23;;;;;;;1.03;0.97;;;5.20;95.60;;;;;;5050814;28;20224;-71
2022/01/06 08:29:52;;;;;;;1.10;1.00;;;5.20;95.60;;;;;;5037497;28;20292;-70
2022/01/06 08:32:20;;;;;;;1.30;1.13;;;5.20;95.60;;;;;;5041060;28;20547;-69
2022/01/06 08:34:47;;;;;;;1.73;1.20;;;5.20;95.60;;;;;;5058330;28;20587;-68
2022/01/06 08:37:15;;;;;;;1.57;1.20;;;5.20;95.60;;;;;;5061330;28;20227;-68
2022/01/06 08:39:42;;;;;;;2.23;1.53;;;5.30;95.70;;;;;;5041668;28;20222;-68
2022/01/06 08:42:11;;;;;;;123.73;63.77;;;5.30;95.50;;;;;;5059188;28;20205;-68
2022/01/06 08:44:39;;;;;;;55.77;26.80;;;5.30;95.50;;;;;;5040509;28;20286;-68
2022/01/06 08:47:07;;;;;;;100.03;37.33;;;5.30;95.40;;;;;;5041137;28;20195;-68
2022/01/06 08:49:35;;;;;;;319.17;127.87;;;5.40;95.60;;;;;;5040457;28;20229;-68
2022/01/06 08:52:03;;;;;;;1999.90;999.90;;;5.40;95.50;;;;;;5059143;28;20232;-68
2022/01/06 08:54:31;;;;;;;113.63;94.20;;;5.40;95.40;;;;;;5041465;28;20682;-68
2022/01/06 08:56:58;;;;;;;1745.53;899.80;;;5.50;95.70;;;;;;5022779;28;20236;-68
2022/01/06 08:59:25;;;;;;;1417.43;637.17;;;5.60;96.20;;;;;;5039620;28;20238;-68
2022/01/06 09:01:52;;;;;;;1999.90;999.90;;;5.60;95.60;;;;;;5056384;28;20220;-68
2022/01/06 09:04:20;;;;;;;809.63;457.63;;;5.60;95.30;;;;;;5041282;28;20216;-68
2022/01/06 09:06:51;;;;;;;84.47;45.07;;;5.70;95.30;;;;;;5057088;28;20242;-68
2022/01/06 09:09:20;;;;;;;136.03;70.07;;;5.70;95.30;;;;;;5059629;28;20204;-69
2022/01/06 09:11:47;;;;;;;94.53;39.17;;;5.70;95.00;;;;;;5044242;28;20305;-68
2022/01/06 09:14:14;;;;;;;23.73;12.20;;;5.70;94.90;;;;;;5057155;28;20200;-68
2022/01/06 09:16:43;;;;;;;33.17;16.07;;;5.60;94.90;;;;;;5057985;28;20210;-68
2022/01/06 09:19:11;;;;;;;31.47;12.27;;;5.60;94.90;;;;;;5041074;28;20217;-68
2022/01/06 09:21:38;;;;;;;12.43;6.80;;;5.70;95.10;;;;;;5057105;28;20213;-68
2022/01/06 09:24:07;;;;;;;9.73;4.80;;;5.60;94.80;;;;;;5040396;28;20226;-68
2022/01/06 09:26:34;;;;;;;131.13;51.30;;;5.70;95.10;;;;;;5052669;28;20208;-68
2022/01/06 09:29:07;;;;;;;52.53;18.20;;;5.70;95.30;;;;;;5041896;28;20204;-68
2022/01/06 09:31:36;;;;;;;20.10;6.20;;;5.70;95.10;;;;;;5047370;28;20211;-68
2022/01/06 09:34:08;;;;;;;147.13;40.50;;;5.80;95.20;;;;;;5057190;28;20226;-68
2022/01/06 09:36:38;;;;;;;4.00;2.70;;;5.80;95.10;;;;;;5038074;28;20215;-69
2022/01/06 09:39:07;;;;;;;2.17;1.73;;;5.90;95.10;;;;;;5059398;28;20219;-69
2022/01/06 09:41:35;;;;;;;2.33;1.83;;;5.90;94.90;;;;;;5060384;28;20216;-68
2022/01/06 09:44:03;;;;;;;1.97;1.80;;;5.90;94.90;;;;;;5024130;28;20246;-68
2022/01/06 09:46:50;;;;;;;2.17;1.97;;;6.00;94.70;;;;;;5058867;28;20233;-68
2022/01/06 09:49:17;;;;;;;1.60;1.43;;;6.10;94.30;;;;;;5064096;28;20206;-68
2022/01/06 09:51:46;;;;;;;3.37;1.93;;;6.10;94.30;;;;;;5062099;28;20230;-68
2022/01/06 09:54:13;;;;;;;2.03;1.53;;;6.20;94.50;;;;;;5060288;28;20276;-68
2022/01/06 09:56:41;;;;;;;1.90;1.70;;;6.20;94.50;;;;;;5045232;28;20561;-68
2022/01/06 09:59:08;;;;;;;1.80;1.70;;;6.30;94.40;;;;;;5045302;28;20251;-68
2022/01/06 10:01:35;;;;;;;2.50;2.30;;;6.30;94.30;;;;;;5031737;28;20224;-68
2022/01/06 10:04:03;;;;;;;2.07;1.87;;;6.30;94.20;;;;;;5046058;28;20661;-68
2022/01/06 10:06:30;;;;;;;1.93;1.70;;;6.40;94.10;;;;;;5045602;28;20302;-68
2022/01/06 10:09:04;;;;;;;2.50;2.03;;;6.40;93.90;;;;;;5046087;28;20237;-68
2022/01/06 10:11:34;;;;;;;1.90;1.80;;;6.40;93.80;;;;;;5046330;28;20590;-68
2022/01/06 10:14:08;;;;;;;1.80;1.70;;;6.40;93.80;;;;;;5039177;28;20232;-68
2022/01/06 10:16:44;;;;;;;2.57;2.00;;;6.40;93.50;;;;;;5054434;28;20204;-68
2022/01/06 10:19:12;;;;;;;2.13;1.93;;;6.40;93.80;;;;;;5039808;28;20669;-68
2022/01/06 10:21:40;;;;;;;1.60;1.50;;;6.40;94.20;;;;;;5053483;28;20255;-68
2022/01/06 10:24:16;;;;;;;2.33;2.13;;;6.40;93.40;;;;;;5039915;28;20547;-68
2022/01/06 10:26:56;;;;;;;3.57;2.47;;;6.40;93.50;;;;;;5037287;28;20246;-68
2022/01/06 10:29:29;;;;;;;3.03;2.37;;;6.50;93.70;;;;;;5039171;28;20545;-68
2022/01/06 10:32:07;;;;;;;3.10;2.20;;;6.50;93.80;;;;;;5054860;28;20555;-68
2022/01/06 10:34:39;;;;;;;2.60;2.40;;;6.50;93.60;;;;;;5039539;28;20228;-68
2022/01/06 10:37:25;;;;;;;3.77;3.03;;;6.60;94.10;;;;;;5038024;28;20248;-68
2022/01/06 10:39:59;;;;;;;2.90;2.50;;;6.60;93.70;;;;;;5039018;28;20216;-68
2022/01/06 10:42:29;;;;;;;4.73;2.90;;;6.60;93.60;;;;;;5056178;28;20204;-68
2022/01/06 10:45:01;;;;;;;3.13;2.83;;;6.70;93.50;;;;;;5039563;28;20201;-68
2022/01/06 10:47:31;;;;;;;3.13;2.83;;;6.80;93.50;;;;;;5055382;28;20230;-69
2022/01/06 10:50:09;;;;;;;3.17;2.87;;;6.80;93.20;;;;;;5037500;28;20195;-70
2022/01/06 10:52:39;;;;;;;3.60;2.77;;;6.80;93.60;;;;;;5044449;28;20254;-70
2022/01/06 10:55:31;;;;;;;2.77;2.57;;;6.90;93.50;;;;;;5056655;28;20661;-69
2022/01/06 10:58:00;;;;;;;3.33;2.77;;;6.90;93.40;;;;;;5044315;28;20204;-71
2022/01/06 11:00:39;;;;;;;2.70;2.50;;;7.00;93.40;;;;;;5040973;28;20651;-70
2022/01/06 11:03:21;;;;;;;3.37;2.90;;;7.00;93.30;;;;;;5040536;28;20206;-69
2022/01/06 11:05:53;;;;;;;3.63;3.33;;;7.00;93.60;;;;;;5011818;28;20236;-68
2022/01/06 11:08:25;;;;;;;4.00;2.90;;;7.00;93.40;;;;;;5038747;28;20858;-68
2022/01/06 11:13:38;;;;;;;3.83;3.50;;;7.10;93.90;;;;;;5053015;28;20702;-70
2022/01/06 11:16:05;;;;;;;4.07;3.67;;;7.20;94.20;;;;;;5054419;28;20212;-70
2022/01/06 11:18:34;;;;;;;4.93;3.80;;;7.30;93.70;;;;;;5035418;28;20217;-68
2022/01/06 11:21:25;;;;;;;4.30;3.40;;;7.30;93.50;;;;;;5055864;28;20234;-68
2022/01/06 11:24:11;;;;;;;4.97;4.47;;;7.30;93.40;;;;;;5026403;28;20198;-68
2022/01/06 11:26:39;;;;;;;4.00;3.60;;;7.30;93.30;;;;;;5053562;28;20248;-68
2022/01/06 11:29:06;;;;;;;5.67;4.73;;;7.30;93.30;;;;;;5037848;28;20657;-68
2022/01/06 11:31:42;;;;;;;4.97;4.17;;;7.30;93.20;;;;;;5034053;28;20204;-69
2022/01/06 11:34:17;;;;;;;4.23;3.83;;;7.40;93.00;;;;;;5051325;28;20279;-68
2022/01/06 11:36:50;;;;;;;4.80;3.87;;;7.40;92.90;;;;;;5036480;28;20308;-69
2022/01/06 11:39:37;;;;;;;4.93;4.30;;;7.40;93.10;;;;;;5039282;28;20205;-69
2022/01/06 11:42:21;;;;;;;5.40;4.20;;;7.50;92.80;;;;;;5055394;28;20198;-69
2022/01/06 11:44:58;;;;;;;4.40;4.00;;;7.50;92.60;;;;;;5038661;28;20379;-68
2022/01/06 11:47:43;;;;;;;5.03;4.53;;;7.50;92.70;;;;;;5055109;28;20288;-68
2022/01/06 11:50:21;;;;;;;4.27;3.80;;;7.60;92.50;;;;;;5055607;28;20206;-69
2022/01/06 11:52:59;;;;;;;4.43;3.80;;;7.60;92.50;;;;;;5038019;28;20232;-68
2022/01/06 11:55:35;;;;;;;4.57;3.80;;;7.60;92.80;;;;;;5058753;28;20235;-68
2022/01/06 11:58:22;;;;;;;4.23;3.83;;;7.60;92.50;;;;;;5040195;28;20237;-68
2022/01/06 12:01:02;;;;;;;4.70;3.77;;;7.70;92.70;;;;;;5037795;28;20221;-68
2022/01/06 12:03:45;;;;;;;4.83;4.33;;;7.70;92.70;;;;;;5045039;28;20240;-68
2022/01/06 12:06:26;;;;;;;4.17;3.77;;;7.80;92.90;;;;;;5039317;28;20288;-68
2022/01/06 12:08:54;;;;;;;4.10;3.67;;;7.80;92.40;;;;;;5049437;28;20224;-68
2022/01/06 12:11:23;;;;;;;3.83;3.43;;;7.80;92.60;;;;;;5050996;28;20298;-68
2022/01/06 12:13:51;;;;;;;5.00;3.93;;;7.80;92.30;;;;;;5037669;28;20202;-68
2022/01/06 12:16:27;;;;;;;6.33;4.23;;;7.80;92.40;;;;;;5052683;28;20220;-68
2022/01/06 12:18:55;;;;;;;4.63;4.23;;;7.90;93.00;;;;;;5037926;28;20577;-69
2022/01/06 12:21:23;;;;;;;5.30;3.77;;;7.90;92.60;;;;;;5055071;28;20216;-68
2022/01/06 12:24:06;;;;;;;4.40;3.87;;;8.00;92.50;;;;;;5036744;28;20242;-68
2022/01/06 12:26:35;;;;;;;4.20;3.80;;;8.00;92.20;;;;;;5034115;28;20254;-70
2022/01/06 12:29:04;;;;;;;4.87;4.37;;;8.00;92.50;;;;;;5055420;28;20233;-71
2022/01/06 12:31:33;;;;;;;5.03;4.53;;;8.10;92.60;;;;;;5037285;28;20222;-70
2022/01/06 12:34:02;;;;;;;4.70;4.23;;;8.10;92.30;;;;;;5035111;28;20590;-70
2022/01/06 12:36:31;;;;;;;4.90;4.33;;;8.10;92.00;;;;;;5036538;28;20211;-70
2022/01/06 12:39:06;;;;;;;5.17;3.93;;;8.20;92.30;;;;;;5037824;28;20214;-70
2022/01/06 12:41:36;;;;;;;4.53;4.00;;;8.20;91.80;;;;;;5052428;28;20204;-70
2022/01/06 12:44:03;;;;;;;4.70;4.27;;;8.20;91.70;;;;;;5051901;28;20308;-70
2022/01/06 12:46:35;;;;;;;5.00;4.50;;;8.20;91.80;;;;;;5054461;28;20254;-70
2022/01/06 12:49:07;;;;;;;5.87;4.13;;;8.20;92.00;;;;;;5020943;28;20280;-69
2022/01/06 12:51:40;;;;;;;5.60;4.67;;;8.30;91.70;;;;;;5053910;28;20611;-69
2022/01/06 12:54:13;;;;;;;5.00;4.50;;;8.30;92.10;;;;;;5035505;28;20238;-70
2022/01/06 12:56:41;;;;;;;5.20;4.60;;;8.30;92.30;;;;;;5054854;28;20308;-70
2022/01/06 12:59:10;;;;;;;5.60;4.50;;;8.40;92.10;;;;;;5054330;28;20213;-69
2022/01/06 13:01:38;;;;;;;5.10;4.50;;;8.50;92.20;;;;;;5040837;28;20216;-69
2022/01/06 13:04:07;;;;;;;4.57;4.03;;;8.50;91.90;;;;;;5048139;28;20647;-69
2022/01/06 13:06:37;;;;;;;4.63;4.23;;;8.60;91.90;;;;;;5058253;28;20221;-69
2022/01/06 13:09:21;;;;;;;4.90;4.30;;;8.60;91.70;;;;;;5055985;28;20278;-69
2022/01/06 13:11:52;;;;;;;4.20;3.80;;;8.70;91.90;;;;;;5055489;28;20225;-70
2022/01/06 13:14:27;;;;;;;4.27;3.87;;;8.80;91.60;;;;;;5056910;28;20203;-70
2022/01/06 13:17:17;;;;;;;5.10;4.60;;;8.80;91.40;;;;;;5037835;28;20240;-70
2022/01/06 13:20:10;;;;;;;5.13;4.50;;;8.90;90.90;;;;;;5049721;28;20707;-70
2022/01/06 13:25:25;;;;;;;4.90;4.40;;;9.00;91.50;;;;;;5037685;28;20246;-70
2022/01/06 13:28:03;;;;;;;4.43;4.03;;;9.00;90.40;;;;;;5056507;28;20222;-70
2022/01/06 13:30:34;;;;;;;4.80;3.73;;;9.00;90.50;;;;;;5055717;28;20191;-70
2022/01/06 13:33:03;;;;;;;5.87;4.77;;;9.00;90.60;;;;;;5057644;28;20206;-70